Time;durP1;ratioP1;P1;durP2;ratioP2;P2;SDS_P1;SDS_P2;PMS_P1;PMS_P2;Temp;Humidity;BMP_temperature;BMP_pressure;BME280_temperature;BME280_humidity;BME280_pressure;Samples;Min_cycle;Max_cycle;Signal;HPM_P1;HPM_P2
2023/04/17 00:03:45;;;;;;;38.50;17.30;;;;;;;8.72;100.00;101043.14;218148;1288;139405;-93
2023/04/17 00:08:46;;;;;;;28.60;16.60;;;;;;;8.70;100.00;101045.73;218443;1288;138978;-93
2023/04/17 00:13:46;;;;;;;29.40;16.20;;;;;;;8.66;100.00;101047.57;218125;1289;138898;-93
2023/04/17 00:18:47;;;;;;;37.40;17.30;;;;;;;8.66;100.00;101052.05;218654;1288;138901;-92
2023/04/17 00:23:48;;;;;;;34.70;17.70;;;;;;;8.63;100.00;101047.02;218166;1288;138618;-89
2023/04/17 00:28:49;;;;;;;31.00;17.60;;;;;;;8.59;100.00;101049.30;218704;1287;139920;-93
2023/04/17 00:33:50;;;;;;;38.80;21.70;;;;;;;8.56;100.00;101047.75;218135;1288;139389;-92
2023/04/17 00:38:50;;;;;;;35.40;19.50;;;;;;;8.51;100.00;101050.84;218264;1288;139782;-92
2023/04/17 00:43:51;;;;;;;37.90;20.10;;;;;;;8.51;100.00;101051.84;218969;1288;138812;-94
2023/04/17 00:48:51;;;;;;;30.40;19.50;;;;;;;8.51;100.00;101053.52;218009;1288;139677;-93
2023/04/17 00:53:52;;;;;;;30.00;18.30;;;;;;;8.49;100.00;101053.20;218684;1288;96013;-93
2023/04/17 00:58:55;;;;;;;33.70;19.10;;;;;;;8.48;100.00;101053.79;218072;1288;138910;-91
2023/04/17 01:03:58;;;;;;;34.60;19.00;;;;;;;8.43;100.00;101053.27;218567;1288;138782;-87
2023/04/17 01:08:59;;;;;;;33.20;19.90;;;;;;;8.39;100.00;101058.23;217928;1288;139502;-88
2023/04/17 01:13:59;;;;;;;34.30;20.80;;;;;;;8.33;100.00;101056.39;218601;1288;139004;-87
2023/04/17 01:19:00;;;;;;;31.40;18.60;;;;;;;8.30;100.00;101059.37;218083;1288;139408;-87
2023/04/17 01:24:03;;;;;;;32.70;20.00;;;;;;;8.31;100.00;101060.98;218725;1288;96112;-88
2023/04/17 01:29:04;;;;;;;31.50;19.30;;;;;;;8.27;100.00;101059.28;217822;1288;139378;-87
2023/04/17 01:34:04;;;;;;;30.60;18.90;;;;;;;8.27;100.00;101058.10;218577;1288;139244;-87
2023/04/17 01:39:06;;;;;;;30.30;16.80;;;;;;;8.27;100.00;101061.25;217923;1289;140204;-87
2023/04/17 01:44:06;;;;;;;31.50;17.50;;;;;;;8.25;100.00;101064.77;218577;1288;138869;-88
2023/04/17 01:49:07;;;;;;;29.70;16.80;;;;;;;8.23;100.00;101065.50;217963;1288;139355;-87
2023/04/17 01:54:07;;;;;;;28.50;15.80;;;;;;;8.24;100.00;101070.77;218710;1287;96023;-87
2023/04/17 01:59:08;;;;;;;30.70;17.00;;;;;;;8.27;100.00;101079.65;218058;1288;139318;-88
2023/04/17 02:04:09;;;;;;;32.40;17.30;;;;;;;8.28;100.00;101083.67;218557;1288;139400;-88
2023/04/17 02:09:10;;;;;;;30.70;16.10;;;;;;;8.27;100.00;101079.64;217865;1289;139618;-88
2023/04/17 02:14:10;;;;;;;29.20;17.50;;;;;;;8.25;100.00;101089.70;218568;1288;139282;-87
2023/04/17 02:19:11;;;;;;;29.70;17.80;;;;;;;8.22;100.00;101092.27;217865;1288;139802;-87
2023/04/17 02:24:12;;;;;;;28.90;17.70;;;;;;;8.17;100.00;101093.33;218529;1291;96120;-86
2023/04/17 02:29:12;;;;;;;29.90;18.20;;;;;;;8.12;100.00;101095.60;217958;1288;138889;-88
2023/04/17 02:34:13;;;;;;;32.10;19.30;;;;;;;8.06;100.00;101096.41;218492;1288;138844;-88
2023/04/17 02:39:13;;;;;;;33.20;18.70;;;;;;;7.94;100.00;101092.41;217854;1291;139757;-88
2023/04/17 02:44:14;;;;;;;35.40;20.40;;;;;;;7.87;100.00;101089.56;218569;1288;139762;-87
2023/04/17 02:49:14;;;;;;;31.50;19.10;;;;;;;7.80;100.00;101088.31;218009;1287;140067;-87
2023/04/17 02:54:15;;;;;;;32.50;17.40;;;;;;;7.73;100.00;101083.21;218494;1287;96065;-89
2023/04/17 02:59:15;;;;;;;24.90;15.30;;;;;;;7.71;100.00;101087.30;218018;1287;139252;-89
2023/04/17 03:04:15;;;;;;;25.20;14.60;;;;;;;7.68;100.00;101090.41;218451;1288;138813;-88
2023/04/17 03:09:17;;;;;;;29.00;16.40;;;;;;;7.66;100.00;101096.20;217879;1288;139272;-88
2023/04/17 03:14:17;;;;;;;25.10;14.90;;;;;;;7.63;100.00;101098.91;218397;1290;139230;-90
2023/04/17 03:19:18;;;;;;;24.40;14.50;;;;;;;7.60;100.00;101104.77;217889;1288;139457;-91
2023/04/17 03:24:19;;;;;;;27.70;16.00;;;;;;;7.60;100.00;101110.48;218822;1288;112264;-92
2023/04/17 03:29:20;;;;;;;25.40;14.10;;;;;;;7.58;100.00;101108.70;217935;1288;139449;-92
2023/04/17 03:34:21;;;;;;;21.70;13.50;;;;;;;7.59;100.00;101111.01;218295;1287;139807;-91
2023/04/17 03:39:22;;;;;;;25.20;15.20;;;;;;;7.60;100.00;101113.15;218000;1288;139372;-92
2023/04/17 03:44:22;;;;;;;23.90;14.40;;;;;;;7.62;100.00;101111.81;218491;1288;140144;-92
2023/04/17 03:49:23;;;;;;;27.40;16.10;;;;;;;7.64;100.00;101117.98;217836;1288;139478;-93
2023/04/17 03:54:24;;;;;;;25.30;15.60;;;;;;;7.66;100.00;101119.86;218545;1288;112208;-93
2023/04/17 03:59:24;;;;;;;27.40;16.50;;;;;;;7.66;100.00;101119.54;217890;1288;139560;-93
2023/04/17 04:04:25;;;;;;;27.60;17.50;;;;;;;7.64;100.00;101121.91;218452;1288;140057;-92
2023/04/17 04:09:27;;;;;;;26.40;14.70;;;;;;;7.62;100.00;101123.06;217896;1288;139721;-93
2023/04/17 04:14:27;;;;;;;30.00;17.60;;;;;;;7.56;100.00;101121.67;218457;1288;139328;-92
2023/04/17 04:19:28;;;;;;;31.50;17.50;;;;;;;7.50;100.00;101123.91;217959;1288;245059;-93
2023/04/17 04:24:29;;;;;;;30.60;19.10;;;;;;;7.43;100.00;101128.83;218383;1287;110158;-91
2023/04/17 04:29:30;;;;;;;28.00;16.90;;;;;;;7.36;100.00;101129.83;218017;1288;139255;-92
2023/04/17 04:34:32;;;;;;;28.60;17.70;;;;;;;7.35;100.00;101137.02;218564;1288;139442;-94
2023/04/17 04:39:32;;;;;;;30.70;18.70;;;;;;;7.36;100.00;101146.36;217943;1288;139590;-94
2023/04/17 04:44:33;;;;;;;30.80;17.90;;;;;;;7.40;100.00;101150.89;218366;1288;139606;-93
2023/04/17 04:49:34;;;;;;;29.80;18.40;;;;;;;7.40;100.00;101154.31;217798;1287;139396;-93
2023/04/17 04:54:34;;;;;;;33.40;20.70;;;;;;;7.39;100.00;101155.05;218577;1287;96568;-92
2023/04/17 04:59:35;;;;;;;33.80;20.40;;;;;;;7.40;100.00;101158.70;217858;1288;139246;-94
2023/04/17 05:04:36;;;;;;;34.80;21.20;;;;;;;7.38;100.00;101161.23;218452;1288;139385;-93
2023/04/17 05:09:36;;;;;;;34.20;20.70;;;;;;;7.39;100.00;101165.88;218084;1287;141847;-95
2023/04/17 05:14:38;;;;;;;37.30;21.00;;;;;;;7.41;100.00;101170.93;218947;1288;139316;-94
2023/04/17 05:19:39;;;;;;;37.80;21.60;;;;;;;7.44;100.00;101175.11;218190;1287;140138;-94
2023/04/17 05:24:39;;;;;;;37.80;21.30;;;;;;;7.43;100.00;101178.06;218768;1287;96117;-93
2023/04/17 05:29:40;;;;;;;35.80;19.80;;;;;;;7.42;100.00;101179.23;218225;1288;139059;-94
2023/04/17 05:34:40;;;;;;;36.90;21.30;;;;;;;7.48;100.00;101178.64;218705;1287;139029;-89
2023/04/17 05:39:41;;;;;;;39.20;22.50;;;;;;;7.53;100.00;101180.15;217878;1288;139499;-89
2023/04/17 05:44:41;;;;;;;42.10;22.10;;;;;;;7.52;100.00;101183.55;218453;1288;138886;-89
2023/04/17 05:49:43;;;;;;;39.00;23.10;;;;;;;7.48;100.00;101182.24;218092;1288;139577;-91
2023/04/17 05:54:43;;;;;;;36.50;20.40;;;;;;;7.41;100.00;101183.78;218223;1287;138895;-88
2023/04/17 05:59:44;;;;;;;39.10;21.50;;;;;;;7.30;100.00;101184.95;217916;1288;139086;-90
2023/04/17 06:04:45;;;;;;;37.40;22.20;;;;;;;7.30;100.00;101187.14;218546;1288;138670;-89
2023/04/17 06:09:45;;;;;;;35.70;20.60;;;;;;;7.34;100.00;101191.02;217988;1288;139414;-89
2023/04/17 06:14:46;;;;;;;34.60;20.40;;;;;;;7.41;100.00;101200.14;218620;1288;140205;-89
2023/04/17 06:19:46;;;;;;;43.20;23.10;;;;;;;7.49;100.00;101204.48;218068;1288;139182;-89
2023/04/17 06:24:47;;;;;;;34.90;21.40;;;;;;;7.53;100.00;101202.59;218607;1288;139722;-89
2023/04/17 06:29:47;;;;;;;35.40;19.90;;;;;;;7.54;100.00;101202.63;218028;1288;139255;-90
2023/04/17 06:34:47;;;;;;;34.40;21.90;;;;;;;7.51;100.00;101204.23;218531;1288;139217;-90
2023/04/17 06:39:48;;;;;;;39.90;21.90;;;;;;;7.57;100.00;101208.14;217878;1289;139307;-89
2023/04/17 06:44:48;;;;;;;34.30;20.70;;;;;;;7.65;100.00;101217.81;218560;1288;139519;-89
2023/04/17 06:49:49;;;;;;;33.80;19.70;;;;;;;7.71;100.00;101224.92;218058;1288;139284;-89
2023/04/17 06:54:53;;;;;;;36.30;18.90;;;;;;;7.72;100.00;101233.81;218432;1288;139367;-87
2023/04/17 06:59:54;;;;;;;31.30;18.10;;;;;;;7.74;100.00;101239.02;218191;1288;139492;-87
2023/04/17 07:04:54;;;;;;;33.00;18.20;;;;;;;7.75;100.00;101242.84;218377;1288;139035;-87
2023/04/17 07:09:55;;;;;;;32.70;18.00;;;;;;;7.83;100.00;101250.47;217560;1289;139498;-86
2023/04/17 07:14:56;;;;;;;36.20;17.80;;;;;;;7.97;100.00;101259.73;218277;1288;139053;-86
2023/04/17 07:19:56;;;;;;;32.40;17.40;;;;;;;8.04;100.00;101268.20;217892;1288;139792;-86
2023/04/17 07:24:57;;;;;;;32.10;17.50;;;;;;;8.09;100.00;101270.02;218498;1288;139886;-85
2023/04/17 07:29:57;;;;;;;28.90;16.80;;;;;;;8.19;100.00;101275.23;218093;1288;140180;-86
2023/04/17 07:34:58;;;;;;;30.10;17.80;;;;;;;8.33;100.00;101281.91;218447;1287;138678;-87
2023/04/17 07:39:58;;;;;;;23.80;16.10;;;;;;;8.40;100.00;101283.16;217977;1288;139577;-87
2023/04/17 07:44:58;;;;;;;28.30;19.30;;;;;;;8.47;100.00;101289.46;218545;1287;138925;-87
2023/04/17 07:49:59;;;;;;;27.90;16.60;;;;;;;8.55;100.00;101296.46;218127;1287;139797;-88
2023/04/17 07:54:59;;;;;;;28.40;17.70;;;;;;;8.63;100.00;101303.17;218664;1288;139196;-89
2023/04/17 08:00:00;;;;;;;26.30;17.20;;;;;;;8.72;100.00;101304.95;218157;1288;138875;-88
2023/04/17 08:05:02;;;;;;;29.40;18.70;;;;;;;8.82;100.00;101305.55;218398;1287;139130;-87
2023/04/17 08:10:03;;;;;;;27.60;17.70;;;;;;;8.81;100.00;101308.76;217765;1288;138982;-88
2023/04/17 08:15:04;;;;;;;30.50;18.70;;;;;;;8.82;100.00;101309.73;218518;1288;140062;-87
2023/04/17 08:20:10;;;;;;;26.10;17.00;;;;;;;8.87;100.00;101308.73;217790;1289;140492;-87
2023/04/17 08:25:11;;;;;;;28.60;18.20;;;;;;;8.93;100.00;101310.39;218440;1287;139689;-88
2023/04/17 08:30:12;;;;;;;39.20;18.70;;;;;;;9.14;100.00;101317.11;217928;1288;138839;-88
2023/04/17 08:35:14;;;;;;;25.20;17.30;;;;;;;9.34;100.00;101330.41;218549;1288;139261;-90
2023/04/17 08:40:15;;;;;;;26.90;17.30;;;;;;;9.41;100.00;101338.35;217891;1287;140374;-88
2023/04/17 08:45:17;;;;;;;26.60;16.30;;;;;;;9.55;100.00;101338.92;218376;1288;138937;-88
2023/04/17 08:50:20;;;;;;;28.50;17.20;;;;;;;9.62;100.00;101345.62;217772;1289;138995;-86
2023/04/17 08:55:24;;;;;;;25.70;16.20;;;;;;;9.57;100.00;101349.64;218317;1288;139465;-86
2023/04/17 09:00:26;;;;;;;26.50;17.70;;;;;;;9.59;100.00;101350.10;218093;1288;139256;-89
2023/04/17 09:05:37;;;;;;;28.00;15.50;;;;;;;9.61;100.00;101350.09;218355;1289;138757;-91
2023/04/17 09:10:46;;;;;;;24.20;15.00;;;;;;;9.70;100.00;101350.52;218562;1288;105403;-90
2023/04/17 09:16:04;;;;;;;24.60;14.90;;;;;;;9.75;100.00;101354.91;218393;1288;139853;-91
2023/04/17 09:21:05;;;;;;;22.00;13.50;;;;;;;9.83;100.00;101358.58;218181;1288;139225;-92
2023/04/17 09:26:13;;;;;;;22.20;14.60;;;;;;;9.80;100.00;101360.60;218822;1288;139366;-92
2023/04/17 09:31:17;;;;;;;22.70;13.40;;;;;;;9.81;100.00;101365.23;217845;1288;139324;-92
2023/04/17 09:36:21;;;;;;;22.20;14.00;;;;;;;9.79;100.00;101366.71;218923;1287;95971;-92
2023/04/17 09:41:23;;;;;;;24.50;15.10;;;;;;;9.85;100.00;101365.95;217927;1288;139112;-91
2023/04/17 09:46:44;;;;;;;24.80;15.60;;;;;;;9.95;100.00;101369.92;218481;1288;138930;-90
2023/04/17 09:51:45;;;;;;;25.20;15.70;;;;;;;9.99;100.00;101367.84;217823;1287;139312;-90
2023/04/17 09:56:48;;;;;;;24.30;15.80;;;;;;;10.09;100.00;101371.06;218476;1288;139054;-91
2023/04/17 10:01:49;;;;;;;23.90;15.80;;;;;;;10.13;100.00;101364.12;218035;1288;140200;-92
2023/04/17 10:06:50;;;;;;;26.90;16.50;;;;;;;10.23;100.00;101368.55;218629;1287;139242;-91
2023/04/17 10:11:51;;;;;;;22.30;15.10;;;;;;;10.35;100.00;101369.45;218178;1288;139952;-91
2023/04/17 10:16:52;;;;;;;27.60;16.00;;;;;;;10.52;100.00;101372.79;218543;1288;139155;-90
2023/04/17 10:22:14;;;;;;;26.20;16.50;;;;;;;10.60;100.00;101375.52;217828;1288;141653;-89
2023/04/17 10:27:24;;;;;;;26.50;16.60;;;;;;;10.60;100.00;101380.16;218516;1287;140359;-89
2023/04/17 10:32:29;;;;;;;36.70;20.00;;;;;;;10.64;100.00;101380.28;218189;1287;139300;-88
2023/04/17 10:37:49;;;;;;;24.70;16.10;;;;;;;10.70;100.00;101378.54;218389;1288;139435;-87
2023/04/17 10:43:18;;;;;;;32.40;19.10;;;;;;;10.80;100.00;101369.20;218037;1288;140487;-88
2023/04/17 10:48:40;;;;;;;25.90;16.10;;;;;;;10.94;100.00;101363.71;218533;1288;111149;-88
2023/04/17 10:53:44;;;;;;;26.70;15.70;;;;;;;11.13;100.00;101363.96;217999;1288;139395;-89
2023/04/17 10:58:55;;;;;;;25.60;16.10;;;;;;;11.37;100.00;101363.71;218391;1288;139310;-87
2023/04/17 11:03:59;;;;;;;24.20;15.60;;;;;;;11.64;100.00;101360.48;218163;1288;139260;-87
2023/04/17 11:09:00;;;;;;;21.70;14.20;;;;;;;11.91;100.00;101361.94;218009;1288;140385;-89
2023/04/17 11:14:04;;;;;;;19.00;13.10;;;;;;;12.06;100.00;101359.23;218383;1288;139382;-87
2023/04/17 11:19:05;;;;;;;20.90;14.80;;;;;;;12.28;100.00;101352.18;217960;1287;141328;-88
2023/04/17 11:24:05;;;;;;;19.30;12.90;;;;;;;12.69;100.00;101346.21;218651;1288;95965;-88
2023/04/17 11:29:16;;;;;;;17.60;12.50;;;;;;;13.01;100.00;101349.63;218104;1291;139975;-87
2023/04/17 11:34:17;;;;;;;17.90;11.40;;;;;;;13.26;100.00;101350.88;218307;1288;140474;-88
2023/04/17 11:39:22;;;;;;;16.00;10.80;;;;;;;13.38;100.00;101358.64;217962;1288;139729;-88
2023/04/17 11:44:23;;;;;;;15.90;10.60;;;;;;;13.48;100.00;101353.96;218435;1288;140264;-88
2023/04/17 11:49:37;;;;;;;14.10;9.70;;;;;;;13.66;99.82;101359.11;218012;1288;139915;-87
2023/04/17 11:54:38;;;;;;;14.60;10.10;;;;;;;13.60;98.37;101359.20;218513;1289;107813;-88
2023/04/17 11:59:44;;;;;;;15.50;11.10;;;;;;;13.50;97.38;101363.70;217743;1288;139737;-89
2023/04/17 12:04:45;;;;;;;17.00;9.70;;;;;;;13.44;96.38;101365.84;218126;1288;138922;-88
2023/04/17 12:09:53;;;;;;;14.30;9.80;;;;;;;13.40;97.23;101367.30;217675;1288;139904;-89
2023/04/17 12:14:54;;;;;;;14.60;9.10;;;;;;;13.56;97.84;101368.45;218334;1288;139365;-89
2023/04/17 12:19:54;;;;;;;15.50;10.50;;;;;;;13.61;95.73;101363.80;218028;1288;139999;-88
2023/04/17 12:24:55;;;;;;;13.20;8.60;;;;;;;13.55;95.46;101367.89;218716;1288;139211;-89
2023/04/17 12:29:55;;;;;;;14.00;8.90;;;;;;;13.53;92.74;101372.38;218118;1288;139712;-89
2023/04/17 12:34:56;;;;;;;15.40;9.80;;;;;;;13.61;94.52;101362.20;218428;1288;140662;-87
2023/04/17 12:39:58;;;;;;;13.50;8.90;;;;;;;13.55;91.78;101368.20;217941;1288;138942;-89
2023/04/17 12:44:58;;;;;;;15.60;10.00;;;;;;;13.33;90.86;101369.95;218491;1288;139134;-88
2023/04/17 12:49:59;;;;;;;14.10;9.20;;;;;;;13.23;91.11;101371.45;218008;1287;139208;-88
2023/04/17 12:55:00;;;;;;;12.90;8.50;;;;;;;13.29;92.17;101368.77;218590;1288;139024;-87
2023/04/17 13:00:00;;;;;;;13.90;8.90;;;;;;;13.46;92.05;101371.48;218094;1288;139645;-89
2023/04/17 13:05:01;;;;;;;14.40;9.50;;;;;;;13.47;90.70;101366.68;218241;1289;140399;-88
2023/04/17 13:10:02;;;;;;;13.80;9.40;;;;;;;13.42;91.26;101369.04;217939;1288;140444;-89
2023/04/17 13:15:03;;;;;;;14.90;9.10;;;;;;;13.55;92.40;101370.81;218524;1288;138932;-89
2023/04/17 13:20:06;;;;;;;14.10;9.20;;;;;;;13.70;91.78;101367.86;218222;1287;139142;-88
2023/04/17 13:25:07;;;;;;;14.50;9.70;;;;;;;13.97;91.64;101368.70;218439;1288;139128;-89
2023/04/17 13:30:08;;;;;;;15.30;10.00;;;;;;;14.13;90.89;101367.77;217939;1288;139532;-89
2023/04/17 13:35:11;;;;;;;13.40;8.80;;;;;;;14.38;91.83;101367.21;218376;1287;138799;-88
2023/04/17 13:40:12;;;;;;;15.30;10.20;;;;;;;14.59;90.86;101370.27;217786;1288;139591;-89
2023/04/17 13:45:13;;;;;;;15.30;10.90;;;;;;;14.61;88.79;101373.05;218488;1288;139405;-90
2023/04/17 13:50:13;;;;;;;13.40;8.70;;;;;;;14.59;89.04;101373.27;217988;1288;139269;-90
2023/04/17 13:55:16;;;;;;;12.70;8.40;;;;;;;14.57;87.12;101368.13;218523;1288;138865;-90
2023/04/17 14:00:17;;;;;;;13.60;9.40;;;;;;;14.53;87.93;101370.14;217910;1287;139278;-90
2023/04/17 14:05:17;;;;;;;15.10;9.50;;;;;;;14.62;88.00;101370.46;218472;1288;138860;-89
2023/04/17 14:10:18;;;;;;;12.60;8.40;;;;;;;14.67;87.04;101371.70;217972;1288;139640;-91
2023/04/17 14:15:19;;;;;;;13.80;8.20;;;;;;;14.52;84.25;101373.84;218398;1288;139046;-89
2023/04/17 14:20:19;;;;;;;13.70;8.40;;;;;;;14.38;85.40;101376.88;217928;1288;139001;-90
2023/04/17 14:25:19;;;;;;;13.20;8.40;;;;;;;14.34;84.52;101375.95;218329;1288;139074;-89
2023/04/17 14:30:20;;;;;;;14.00;9.30;;;;;;;14.27;85.85;101370.57;217962;1288;138800;-89
2023/04/17 14:35:20;;;;;;;13.00;8.60;;;;;;;14.33;85.52;101371.12;218342;1288;138636;-89
2023/04/17 14:40:21;;;;;;;11.20;7.30;;;;;;;14.27;85.35;101374.29;217618;1288;141057;-89
2023/04/17 14:45:22;;;;;;;11.30;7.80;;;;;;;14.28;86.08;101372.16;218337;1288;138812;-90
2023/04/17 14:50:22;;;;;;;12.00;7.80;;;;;;;14.19;85.07;101374.84;217868;1288;139081;-88
2023/04/17 14:55:23;;;;;;;18.00;7.80;;;;;;;14.05;83.96;101373.20;218361;1291;138898;-87
2023/04/17 15:00:23;;;;;;;20.10;12.90;;;;;;;13.86;85.16;101373.30;217638;1288;139274;-88
2023/04/17 15:05:24;;;;;;;12.60;7.90;;;;;;;13.85;85.85;101377.23;218088;1289;139623;-87
2023/04/17 15:10:25;;;;;;;20.50;11.90;;;;;;;13.80;86.07;101377.02;218004;1288;139388;-88
2023/04/17 15:15:27;;;;;;;13.90;9.00;;;;;;;13.79;86.11;101374.31;218351;1288;139857;-87
2023/04/17 15:20:28;;;;;;;11.50;7.60;;;;;;;13.74;86.02;101377.71;217826;1289;139270;-88
2023/04/17 15:25:28;;;;;;;18.20;11.60;;;;;;;13.72;86.23;101376.73;218428;1288;138917;-88
2023/04/17 15:30:29;;;;;;;12.20;8.00;;;;;;;13.64;85.99;101374.49;217856;1289;140332;-87
2023/04/17 15:35:29;;;;;;;11.00;7.00;;;;;;;13.58;85.81;101374.89;218334;1290;139352;-89
2023/04/17 15:40:30;;;;;;;11.20;6.70;;;;;;;13.51;85.67;101377.17;217597;1288;139659;-88
2023/04/17 15:45:30;;;;;;;9.70;6.20;;;;;;;13.43;85.31;101378.86;218360;1288;139608;-87
2023/04/17 15:50:33;;;;;;;9.70;6.30;;;;;;;13.43;86.19;101376.90;217760;1289;139076;-89
2023/04/17 15:55:35;;;;;;;10.50;6.20;;;;;;;13.37;85.37;101384.46;218213;1288;138860;-89
2023/04/17 16:00:35;;;;;;;9.40;5.40;;;;;;;13.18;85.02;101387.89;217855;1288;138963;-88
2023/04/17 16:05:36;;;;;;;10.30;5.90;;;;;;;13.06;85.39;101388.23;218665;1288;138659;-88
2023/04/17 16:10:36;;;;;;;11.50;5.80;;;;;;;13.00;86.11;101389.70;217911;1289;140084;-87
2023/04/17 16:15:37;;;;;;;11.40;6.60;;;;;;;12.95;86.74;101385.98;218252;1288;258809;-88
2023/04/17 16:20:38;;;;;;;11.30;5.90;;;;;;;12.82;85.81;101387.40;217935;1288;139226;-89
2023/04/17 16:25:38;;;;;;;9.50;5.90;;;;;;;12.55;85.89;101388.27;218332;1288;139744;-88
2023/04/17 16:30:38;;;;;;;8.50;5.00;;;;;;;12.35;86.58;101389.31;217967;1288;138845;-88
2023/04/17 16:35:39;;;;;;;9.70;4.60;;;;;;;12.19;87.18;101396.01;218241;1288;138762;-88
2023/04/17 16:40:39;;;;;;;9.00;5.30;;;;;;;12.02;87.76;101399.07;217860;1289;138709;-90
2023/04/17 16:45:40;;;;;;;11.20;5.70;;;;;;;11.82;88.46;101395.41;218304;1289;139528;-89
2023/04/17 16:50:41;;;;;;;9.50;5.30;;;;;;;11.68;89.39;101400.83;217865;1288;139338;-89
2023/04/17 16:55:41;;;;;;;9.00;5.00;;;;;;;11.56;90.04;101407.02;218176;1288;138954;-89
2023/04/17 17:00:42;;;;;;;11.40;5.80;;;;;;;11.47;90.22;101411.29;218239;1289;139515;-89
2023/04/17 17:05:42;;;;;;;9.70;5.60;;;;;;;11.35;91.04;101410.21;218456;1289;138662;-87
2023/04/17 17:10:43;;;;;;;12.80;6.30;;;;;;;11.24;91.26;101412.25;217731;1289;141575;-88
2023/04/17 17:15:43;;;;;;;8.60;4.90;;;;;;;11.11;90.98;101413.27;218365;1289;138873;-88
2023/04/17 17:20:44;;;;;;;9.20;5.30;;;;;;;10.99;91.83;101417.98;217860;1289;138846;-87
2023/04/17 17:25:44;;;;;;;10.20;5.40;;;;;;;10.89;92.28;101417.52;218422;1289;138810;-89
2023/04/17 17:30:45;;;;;;;10.70;6.00;;;;;;;10.80;92.62;101426.70;217824;1291;138838;-87
2023/04/17 17:35:45;;;;;;;9.50;5.50;;;;;;;10.71;93.12;101423.33;218175;1289;139092;-88
2023/04/17 17:40:46;;;;;;;9.90;5.20;;;;;;;10.60;93.39;101427.45;217725;1288;138751;-87
2023/04/17 17:45:46;;;;;;;10.50;6.00;;;;;;;10.49;93.55;101434.77;218366;1288;138743;-87
2023/04/17 17:50:46;;;;;;;10.90;5.50;;;;;;;10.40;94.14;101439.06;217671;1289;139991;-87
2023/04/17 17:55:54;;;;;;;10.00;5.70;;;;;;;10.25;94.56;101445.57;218417;1291;139107;-85
2023/04/17 18:00:54;;;;;;;8.70;5.00;;;;;;;10.12;95.28;101455.56;217715;1292;139454;-85
2023/04/17 18:05:55;;;;;;;9.30;5.40;;;;;;;10.01;95.91;101458.82;218527;1289;96160;-86
2023/04/17 18:10:55;;;;;;;9.80;6.20;;;;;;;9.93;96.44;101460.09;217881;1288;138642;-84
2023/04/17 18:15:56;;;;;;;9.90;6.20;;;;;;;9.88;96.77;101464.86;218369;1289;138972;-84
2023/04/17 18:20:56;;;;;;;11.70;6.60;;;;;;;9.81;97.12;101465.77;217881;1289;138782;-85
2023/04/17 18:26:01;;;;;;;10.70;6.10;;;;;;;9.74;97.36;101472.29;218329;1288;138730;-86
2023/04/17 18:31:02;;;;;;;14.30;6.90;;;;;;;9.67;97.58;101466.59;217766;1288;138873;-86
2023/04/17 18:36:03;;;;;;;11.90;5.90;;;;;;;9.61;97.82;101473.13;218426;1289;96396;-85
2023/04/17 18:41:04;;;;;;;11.40;6.50;;;;;;;9.52;97.81;101484.48;217743;1289;140194;-87
2023/04/17 18:46:06;;;;;;;12.70;7.00;;;;;;;9.43;97.68;101490.09;218380;1293;138705;-83
2023/04/17 18:51:11;;;;;;;12.20;6.70;;;;;;;9.34;97.86;101495.12;217944;1289;139422;-88
2023/04/17 18:56:12;;;;;;;12.50;6.90;;;;;;;9.28;98.29;101497.02;218310;1292;138718;-87
2023/04/17 19:01:13;;;;;;;13.20;7.40;;;;;;;9.22;98.46;101503.16;217675;1295;139441;-90
2023/04/17 19:06:13;;;;;;;15.50;8.20;;;;;;;9.17;98.89;101502.92;218432;1289;96007;-86
2023/04/17 19:11:14;;;;;;;13.80;7.90;;;;;;;9.12;99.20;101506.86;217805;1289;138505;-87
2023/04/17 19:16:14;;;;;;;13.90;7.30;;;;;;;9.08;99.40;101507.73;218275;1290;139380;-88
2023/04/17 19:21:15;;;;;;;17.40;7.80;;;;;;;9.03;99.66;101504.34;217908;1289;138839;-88
2023/04/17 19:26:16;;;;;;;15.60;8.70;;;;;;;8.98;99.66;101502.77;218478;1289;139866;-88
2023/04/17 19:31:16;;;;;;;16.60;10.10;;;;;;;8.91;99.56;101507.43;217909;1288;139265;-88
2023/04/17 19:36:17;;;;;;;16.60;9.30;;;;;;;8.81;99.85;101512.28;218394;1288;96104;-87
2023/04/17 19:41:18;;;;;;;16.30;8.90;;;;;;;8.74;99.78;101504.87;218181;1288;139854;-88
2023/04/17 19:46:20;;;;;;;16.30;7.80;;;;;;;8.63;99.90;101508.08;218672;1288;138373;-85
2023/04/17 19:51:21;;;;;;;14.60;7.00;;;;;;;8.52;99.98;101515.38;218065;1288;139996;-86
2023/04/17 19:56:21;;;;;;;15.90;8.50;;;;;;;8.42;99.97;101521.18;218507;1288;139262;-86
2023/04/17 20:01:22;;;;;;;14.50;9.20;;;;;;;8.31;100.00;101525.17;218021;1288;138794;-86
2023/04/17 20:06:22;;;;;;;14.90;7.60;;;;;;;8.24;100.00;101523.88;218698;1288;95957;-87
2023/04/17 20:11:23;;;;;;;15.80;8.40;;;;;;;8.20;100.00;101525.60;218026;1289;139400;-86
2023/04/17 20:16:23;;;;;;;14.40;8.30;;;;;;;8.15;100.00;101528.85;218270;1289;139226;-85
2023/04/17 20:21:24;;;;;;;16.90;9.00;;;;;;;8.11;100.00;101522.34;217846;1289;139647;-85
2023/04/17 20:26:25;;;;;;;16.10;9.30;;;;;;;8.06;100.00;101520.88;218266;1289;139917;-85
2023/04/17 20:31:25;;;;;;;17.50;9.20;;;;;;;8.03;100.00;101516.31;217851;1289;140411;-86
2023/04/17 20:36:26;;;;;;;18.60;10.10;;;;;;;8.01;100.00;101510.36;218439;1288;97215;-86
2023/04/17 20:41:26;;;;;;;17.80;9.30;;;;;;;8.00;100.00;101509.85;217909;1288;139381;-86
2023/04/17 20:46:27;;;;;;;16.40;9.70;;;;;;;7.99;100.00;101504.48;218354;1289;138657;-88
2023/04/17 20:51:29;;;;;;;16.20;9.10;;;;;;;7.98;100.00;101503.50;217883;1288;140186;-85
2023/04/17 20:56:29;;;;;;;16.20;9.70;;;;;;;7.97;100.00;101500.31;218229;1288;139169;-86
2023/04/17 21:01:30;;;;;;;17.80;9.90;;;;;;;7.97;100.00;101498.70;217663;1288;139446;-84
2023/04/17 21:06:30;;;;;;;21.90;10.50;;;;;;;7.96;100.00;101500.45;218503;1288;96084;-87
2023/04/17 21:11:30;;;;;;;18.00;9.60;;;;;;;7.93;100.00;101505.27;217802;1288;139747;-86
2023/04/17 21:16:31;;;;;;;18.20;9.40;;;;;;;7.90;100.00;101506.55;218547;1288;139454;-90
2023/04/17 21:21:31;;;;;;;18.20;9.70;;;;;;;7.86;100.00;101514.92;217770;1288;139602;-89
2023/04/17 21:26:32;;;;;;;20.30;9.40;;;;;;;7.83;100.00;101520.21;218597;1288;138820;-89
2023/04/17 21:31:32;;;;;;;16.70;9.00;;;;;;;7.77;100.00;101522.17;218490;1288;139521;-89
2023/04/17 21:36:33;;;;;;;18.80;9.50;;;;;;;7.73;100.00;101517.39;218723;1288;96205;-90
2023/04/17 21:41:33;;;;;;;17.90;9.50;;;;;;;7.70;100.00;101521.18;218005;1288;141889;-92
2023/04/17 21:46:34;;;;;;;18.70;10.00;;;;;;;7.66;100.00;101519.05;218440;1288;139508;-90
2023/04/17 21:51:35;;;;;;;17.30;9.00;;;;;;;7.62;100.00;101519.85;217918;1288;139564;-91
2023/04/17 21:56:35;;;;;;;16.10;9.10;;;;;;;7.61;100.00;101517.91;218413;1288;139064;-92
2023/04/17 22:01:36;;;;;;;15.70;9.20;;;;;;;7.59;100.00;101518.48;218059;1287;139455;-89
2023/04/17 22:06:36;;;;;;;17.70;8.20;;;;;;;7.58;100.00;101522.19;218743;1287;96097;-91
2023/04/17 22:11:38;;;;;;;14.80;8.40;;;;;;;7.55;100.00;101524.81;218100;1287;139004;-91
2023/04/17 22:16:38;;;;;;;19.40;9.20;;;;;;;7.52;100.00;101532.22;218331;1287;139460;-91
2023/04/17 22:21:39;;;;;;;17.00;8.30;;;;;;;7.48;100.00;101529.59;218032;1287;138984;-91
2023/04/17 22:26:39;;;;;;;15.90;8.00;;;;;;;7.42;100.00;101526.23;218525;1287;138922;-91
2023/04/17 22:31:39;;;;;;;15.70;7.80;;;;;;;7.38;100.00;101525.38;217756;1288;139354;-90